Tropical Cyclones
[Index]
Main Index Home Page Stock Weather Photos Extreme Storms Discussion Storm News and Storm Chasing Reports Tropical Cyclones / Hurricanes / Typhoons Weather Data and Links Wild Fires / Bushfires Weather Observation Techniques Weather Picture Catalogue Tornado Pictures and Reports Stock Video Footage and DVDs for sale
Season 2008-2009 Tropical Cyclone HINA Track Map
Season 2008-2009 Summaries: [BoM-AU] [JTWC-AU] [JTWC-SIO] [JTWC-SPAC] [JTWC-SH]
<<- Previous TC | JTWC 2008-2009 Season | Next TC ->>

click for intensity scale information  Lat/long Grid: Show Hide

 Date Labels: Show Hide

Joint Typhoon Warning Centre Cyclone Data

Name: HINA

20 Feb 2009 00:00 UTC to 27 Feb 2009 06:00 UTC

    date/time    lat    long     hPa   cat  kts
2009-02-20 00   10.7    74.7    1010         15          
2009-02-20 06   11.3    75.2    1010         15          
2009-02-20 12   11.9    75.8    1010         15          
2009-02-20 18   12.4    76.3    1007         20          
2009-02-21 00   12.7    77.0    1000         30          
2009-02-21 06   13.3    77.4    1002         30          
2009-02-21 12   14.0    77.6    1000         30          
2009-02-21 18   14.5    77.8     996         35          
2009-02-22 00   15.1    78.2     993    1    40          
2009-02-22 06   16.0    78.3     985    1    50          
2009-02-22 12   16.8    78.5     982    2    55          
2009-02-22 12   16.8    78.5     982    2    55          
2009-02-22 18   17.7    78.6     978    2    60          
2009-02-22 18   17.7    78.6     978    2    60          
2009-02-23 00   18.6    78.5     974    2    65          
2009-02-23 00   18.6    78.5     974    2    65          
2009-02-23 06   19.1    78.2     978    2    60          
2009-02-23 06   19.1    78.2     978    2    60          
2009-02-23 12   19.5    77.8     978    2    60          
2009-02-23 12   19.5    77.8     978    2    60          
2009-02-23 18   19.9    77.4     989    1    45          
2009-02-24 00   19.7    76.7     996         35          
2009-02-24 06   20.0    75.7    1000         30          
2009-02-24 12   20.3    74.5    1000         30          
2009-02-24 18   20.7    73.1    1000         30          
2009-02-25 00   21.3    71.5    1000         30          
2009-02-25 06   22.0    69.9    1000         30          
2009-02-25 12   23.5    68.2    1000         30          
2009-02-25 18   24.5    67.0    1000         30          
2009-02-26 00   25.5    65.9    1004         25          
2009-02-26 06   26.1    65.2    1004         25          
2009-02-26 12   26.9    64.2    1004         25          
2009-02-26 18   27.6    63.4    1004         25          
2009-02-27 00   28.8    63.1    1010         15          
2009-02-27 06   30.0    62.6    1010         15          
Winds are 1-min average.

Tropical cyclone tracks developed by Michael Bath using data from the Joint Typhoon Warning Centre Best Tracks and Google Maps.


[Australian Severe Weather index] [Copyright Notice] [Email Contacts] [Search This Site] [Privacy Policy]
Document: tropical_cyclone_hina.htm Updated: 28 June 2017